createdAt,value
2022-09-30T00:00:40.390Z,99.99
2022-09-30T00:01:40.369Z,99.99
2022-09-30T00:02:40.324Z,99.99
2022-09-30T00:03:40.221Z,99.99
2022-09-30T00:04:40.168Z,99.99
2022-09-30T00:05:40.110Z,99.99
2022-09-30T00:06:40.046Z,99.99
2022-09-30T00:07:39.990Z,99.99
2022-09-30T00:08:39.957Z,99.99
2022-09-30T00:09:39.942Z,99.99
2022-09-30T00:10:39.816Z,99.99
2022-09-30T00:11:39.758Z,99.99
2022-09-30T00:12:39.706Z,99.99
2022-09-30T00:13:39.647Z,99.99
2022-09-30T00:14:39.607Z,99.99
2022-09-30T00:15:39.529Z,99.99
2022-09-30T00:16:39.539Z,99.99
2022-09-30T00:17:39.415Z,99.99
2022-09-30T00:18:39.358Z,99.99
2022-09-30T00:19:39.326Z,99.99
2022-09-30T00:20:39.246Z,99.99
2022-09-30T00:21:39.186Z,99.99
2022-09-30T00:22:39.130Z,99.99
2022-09-30T00:23:39.071Z,99.99
2022-09-30T00:24:39.016Z,99.99
2022-09-30T00:25:38.987Z,99.99
2022-09-30T00:26:38.903Z,99.99
2022-09-30T00:27:38.895Z,99.99
2022-09-30T00:28:38.790Z,99.99
2022-09-30T00:29:38.728Z,99.99
2022-09-30T00:30:38.675Z,99.99
2022-09-30T00:31:38.698Z,99.99
2022-09-30T00:32:38.556Z,99.99
2022-09-30T00:33:38.503Z,99.99
2022-09-30T00:34:38.443Z,99.99
2022-09-30T00:35:38.384Z,99.99
2022-09-30T00:36:38.358Z,99.99
2022-09-30T00:37:38.274Z,99.99
2022-09-30T00:38:38.230Z,99.99
2022-09-30T00:39:38.162Z,99.99
2022-09-30T00:40:38.108Z,99.99
2022-09-30T00:41:38.041Z,99.99
2022-09-30T00:42:38.030Z,99.99
2022-09-30T00:43:37.927Z,99.99
2022-09-30T00:44:37.870Z,99.99
2022-09-30T00:45:37.814Z,99.99
2022-09-30T00:46:42.256Z,99.99
2022-09-30T00:47:37.705Z,99.99
2022-09-30T00:48:37.685Z,99.99
2022-09-30T00:49:37.582Z,99.99
2022-09-30T00:50:37.528Z,99.99
2022-09-30T00:51:37.466Z,99.99
2022-09-30T00:52:37.416Z,99.99
2022-09-30T00:53:37.353Z,99.99
2022-09-30T00:54:37.312Z,99.99
2022-09-30T00:55:37.243Z,99.99
2022-09-30T00:56:37.183Z,99.99
2022-09-30T00:57:37.125Z,99.99
2022-09-30T00:58:37.069Z,99.99
2022-09-30T00:59:37.030Z,99.99
2022-09-30T01:00:37.028Z,99.99
2022-09-30T01:01:36.931Z,99.99
2022-09-30T01:02:36.838Z,99.99
2022-09-30T01:03:36.780Z,99.99
2022-09-30T01:04:36.767Z,99.99
2022-09-30T01:05:36.675Z,99.99
2022-09-30T01:06:36.608Z,99.99
2022-09-30T01:07:36.552Z,99.99
2022-09-30T01:08:36.532Z,99.99
2022-09-30T01:09:36.457Z,99.99
2022-09-30T01:10:36.404Z,99.99
2022-09-30T01:11:36.321Z,99.99
2022-09-30T01:12:36.265Z,99.99
2022-09-30T01:13:36.209Z,99.99
2022-09-30T01:14:36.148Z,99.99
2022-09-30T01:15:36.090Z,99.99
2022-09-30T01:16:36.153Z,99.99
2022-09-30T01:17:36.000Z,99.99
2022-09-30T01:18:35.919Z,99.99
2022-09-30T01:19:35.864Z,99.99
2022-09-30T01:20:35.804Z,99.99
2022-09-30T01:21:35.746Z,99.99
2022-09-30T01:22:40.013Z,99.99
2022-09-30T01:23:35.632Z,99.99
2022-09-30T01:24:35.573Z,99.99
2022-09-30T01:25:35.518Z,99.99
2022-09-30T01:26:35.459Z,99.99
2022-09-30T01:27:35.403Z,99.99
2022-09-30T01:28:35.372Z,99.99
2022-09-30T01:29:35.290Z,99.99
2022-09-30T01:30:35.232Z,99.99
2022-09-30T01:31:35.230Z,99.99
2022-09-30T01:32:35.142Z,99.99
2022-09-30T01:33:35.058Z,99.99
2022-09-30T01:34:35.026Z,99.99
2022-09-30T01:35:34.944Z,99.99
2022-09-30T01:36:34.885Z,99.99
2022-09-30T01:37:34.828Z,99.99
2022-09-30T01:38:34.771Z,99.99
2022-09-30T01:39:34.744Z,99.99
2022-09-30T01:40:34.665Z,99.99
2022-09-30T01:41:34.601Z,99.99
2022-09-30T01:42:34.542Z,99.99
2022-09-30T01:43:34.484Z,99.99
2022-09-30T01:44:34.424Z,99.99
2022-09-30T01:45:34.388Z,99.99
2022-09-30T01:46:34.353Z,99.99
2022-09-30T01:47:34.256Z,99.99
2022-09-30T01:48:34.198Z,99.99
2022-09-30T01:49:34.137Z,99.99
2022-09-30T01:50:34.108Z,99.99
2022-09-30T01:51:34.027Z,99.99
2022-09-30T01:52:33.967Z,99.99
2022-09-30T01:53:33.911Z,99.99
2022-09-30T01:54:33.854Z,99.99
2022-09-30T01:55:33.795Z,99.99
2022-09-30T01:56:33.765Z,99.99
2022-09-30T01:57:33.685Z,99.99
2022-09-30T01:58:33.625Z,99.99
2022-09-30T01:59:33.567Z,99.99
2022-09-30T02:00:33.532Z,99.99
2022-09-30T02:01:33.481Z,99.99
2022-09-30T02:02:33.395Z,99.99
2022-09-30T02:03:33.335Z,99.99
2022-09-30T02:04:33.281Z,99.99
2022-09-30T02:05:33.223Z,99.99
2022-09-30T02:06:33.165Z,99.99
2022-09-30T02:07:33.126Z,99.99
2022-09-30T02:08:33.052Z,99.99
2022-09-30T02:09:33.048Z,99.99
2022-09-30T02:10:32.933Z,99.99
2022-09-30T02:11:32.878Z,99.99
2022-09-30T02:12:32.845Z,99.99
2022-09-30T02:13:32.778Z,99.99
2022-09-30T02:14:32.707Z,99.99
2022-09-30T02:15:32.647Z,99.99
2022-09-30T02:16:32.683Z,99.99
2022-09-30T02:17:32.531Z,99.99
2022-09-30T02:18:32.495Z,99.99
2022-09-30T02:19:32.416Z,99.99
2022-09-30T02:20:32.359Z,99.99
2022-09-30T02:21:32.300Z,99.99
2022-09-30T02:22:32.243Z,99.99
2022-09-30T02:23:32.214Z,99.99
2022-09-30T02:24:32.165Z,99.99
2022-09-30T02:25:32.087Z,99.99
2022-09-30T02:26:32.015Z,99.99
2022-09-30T02:27:31.956Z,99.99
2022-09-30T02:28:31.916Z,99.99
2022-09-30T02:29:31.840Z,99.99
2022-09-30T02:30:31.787Z,99.99
2022-09-30T02:31:31.809Z,99.99
2022-09-30T02:32:31.669Z,99.99
2022-09-30T02:33:31.637Z,99.99
2022-09-30T02:34:31.555Z,99.99
2022-09-30T02:35:31.496Z,99.99
2022-09-30T02:36:31.442Z,99.99
2022-09-30T02:37:31.381Z,99.99
2022-09-30T02:38:31.325Z,99.99
2022-09-30T02:39:31.286Z,99.99
2022-09-30T02:40:31.210Z,99.99
2022-09-30T02:41:31.152Z,99.99
2022-09-30T02:42:31.095Z,99.99
2022-09-30T02:43:31.041Z,99.99
2022-09-30T02:44:31.104Z,99.99
2022-09-30T02:45:30.924Z,99.99
2022-09-30T02:46:30.919Z,99.99
2022-09-30T02:47:30.809Z,99.99
2022-09-30T02:48:30.749Z,99.99
2022-09-30T02:49:30.690Z,99.99
2022-09-30T02:50:30.653Z,99.99
2022-09-30T02:51:30.578Z,99.99
2022-09-30T02:52:30.520Z,99.99
2022-09-30T02:53:30.462Z,99.99
2022-09-30T02:54:30.404Z,99.99
2022-09-30T02:55:30.373Z,99.99
2022-09-30T02:56:30.292Z,99.99
2022-09-30T02:57:30.230Z,99.99
2022-09-30T02:58:30.178Z,99.99
2022-09-30T02:59:30.117Z,99.99
2022-09-30T03:00:30.091Z,99.99
2022-09-30T03:01:30.054Z,99.99
2022-09-30T03:02:29.968Z,99.99
2022-09-30T03:03:29.887Z,99.99
2022-09-30T03:04:29.830Z,99.99
2022-09-30T03:05:29.782Z,99.99
2022-09-30T03:06:29.735Z,99.99
2022-09-30T03:07:29.660Z,99.99
2022-09-30T03:08:29.604Z,99.99
2022-09-30T03:09:29.572Z,99.99
2022-09-30T03:10:29.486Z,99.99
2022-09-30T03:11:29.452Z,99.99
2022-09-30T03:12:29.371Z,99.99
2022-09-30T03:13:29.312Z,99.99
2022-09-30T03:14:29.256Z,99.99
2022-09-30T03:15:29.196Z,99.99
2022-09-30T03:16:29.188Z,99.99
2022-09-30T03:17:29.108Z,99.99
2022-09-30T03:18:29.028Z,99.99
2022-09-30T03:19:28.969Z,99.99
2022-09-30T03:20:28.911Z,99.99
2022-09-30T03:21:28.851Z,99.99
2022-09-30T03:22:28.798Z,99.99
2022-09-30T03:23:28.764Z,99.99
2022-09-30T03:24:28.683Z,99.99
2022-09-30T03:25:28.622Z,99.99
2022-09-30T03:26:28.568Z,99.99
2022-09-30T03:27:28.510Z,99.99
2022-09-30T03:28:28.453Z,99.99
2022-09-30T03:29:28.420Z,99.99
2022-09-30T03:30:28.339Z,99.99
2022-09-30T03:31:28.417Z,99.99
2022-09-30T03:32:28.237Z,99.99
2022-09-30T03:33:28.163Z,99.99
2022-09-30T03:34:28.108Z,99.99
2022-09-30T03:35:28.075Z,99.99
2022-09-30T03:36:28.001Z,99.99
2022-09-30T03:37:27.937Z,99.99
2022-09-30T03:38:27.880Z,99.99
2022-09-30T03:39:27.820Z,99.99
2022-09-30T03:40:27.761Z,99.99
2022-09-30T03:41:27.736Z,99.99
2022-09-30T03:42:27.650Z,99.99
2022-09-30T03:43:27.597Z,99.99
2022-09-30T03:44:27.558Z,99.99
2022-09-30T03:45:27.502Z,99.99
2022-09-30T03:46:27.500Z,99.99
2022-09-30T03:47:27.363Z,99.99
2022-09-30T03:48:27.302Z,99.99
2022-09-30T03:49:27.253Z,99.99
2022-09-30T03:50:27.190Z,99.99
2022-09-30T03:51:27.151Z,99.99
2022-09-30T03:52:27.074Z,99.99
2022-09-30T03:53:27.025Z,99.99
2022-09-30T03:54:26.959Z,99.99
2022-09-30T03:55:26.903Z,99.99
2022-09-30T03:56:26.869Z,99.99
2022-09-30T03:57:26.784Z,99.99
2022-09-30T03:58:26.726Z,99.99
2022-09-30T03:59:26.671Z,99.99
2022-09-30T04:00:26.724Z,99.99
2022-09-30T04:01:26.609Z,99.99
2022-09-30T04:02:26.614Z,99.99
2022-09-30T04:03:26.439Z,99.99
2022-09-30T04:04:26.383Z,99.99
2022-09-30T04:05:26.325Z,99.99
2022-09-30T04:06:26.268Z,99.99
2022-09-30T04:07:26.207Z,99.99
2022-09-30T04:08:26.194Z,99.99
2022-09-30T04:09:26.317Z,99.99
2022-09-30T04:10:26.040Z,99.99
2022-09-30T04:11:25.979Z,99.99
2022-09-30T04:12:25.924Z,99.99
2022-09-30T04:13:25.860Z,99.99
2022-09-30T04:14:25.825Z,99.99
2022-09-30T04:15:25.747Z,99.99
2022-09-30T04:16:25.753Z,99.99
2022-09-30T04:17:25.632Z,99.99
2022-09-30T04:18:25.574Z,99.99
2022-09-30T04:19:25.605Z,99.99
2022-09-30T04:20:25.459Z,99.99
2022-09-30T04:21:25.405Z,99.99
2022-09-30T04:22:26.563Z,99.99
2022-09-30T04:23:25.309Z,99.99
2022-09-30T04:24:25.229Z,99.99
2022-09-30T04:25:25.213Z,99.99
2022-09-30T04:26:25.122Z,99.99
2022-09-30T04:27:25.057Z,99.99
2022-09-30T04:28:24.998Z,99.99
2022-09-30T04:29:24.942Z,99.99
2022-09-30T04:30:28.075Z,99.99
2022-09-30T04:31:25.556Z,99.99
2022-09-30T04:32:24.768Z,99.99
2022-09-30T04:33:24.711Z,99.99
2022-09-30T04:34:24.652Z,99.99
2022-09-30T04:35:24.593Z,99.99
2022-09-30T04:36:24.573Z,99.99
2022-09-30T04:37:24.479Z,99.99
2022-09-30T04:38:24.420Z,99.99
2022-09-30T04:39:24.368Z,99.99
2022-09-30T04:40:24.308Z,99.99
2022-09-30T04:41:24.250Z,99.99
2022-09-30T04:42:24.217Z,99.99
2022-09-30T04:43:24.134Z,99.99
2022-09-30T04:44:24.078Z,99.99
2022-09-30T04:45:24.055Z,99.99
2022-09-30T04:46:23.960Z,99.99
2022-09-30T04:47:23.904Z,99.99
2022-09-30T04:48:23.866Z,99.99
2022-09-30T04:49:23.909Z,99.99
2022-09-30T04:50:23.731Z,99.99
2022-09-30T04:51:23.670Z,99.99
2022-09-30T04:52:23.616Z,99.99
2022-09-30T04:53:23.613Z,99.99
2022-09-30T04:54:23.496Z,99.99
2022-09-30T04:55:23.440Z,99.99
2022-09-30T04:56:23.382Z,99.99
2022-09-30T04:57:23.324Z,99.99
2022-09-30T04:58:36.845Z,99.99
2022-09-30T04:59:23.346Z,99.99
2022-09-30T05:00:23.151Z,99.99
2022-09-30T05:01:23.188Z,99.99
2022-09-30T05:02:23.072Z,99.99
2022-09-30T05:03:22.982Z,99.99
2022-09-30T05:04:22.944Z,99.99
2022-09-30T05:05:22.864Z,99.99
2022-09-30T05:06:22.807Z,99.99
2022-09-30T05:07:22.750Z,99.99
2022-09-30T05:08:22.692Z,99.99
2022-09-30T05:09:23.003Z,99.99
2022-09-30T05:10:22.607Z,99.99
2022-09-30T05:11:22.517Z,99.99
2022-09-30T05:12:22.495Z,99.99
2022-09-30T05:13:22.399Z,99.99
2022-09-30T05:14:22.348Z,99.99
2022-09-30T05:15:22.287Z,99.99
2022-09-30T05:16:22.321Z,99.99
2022-09-30T05:17:22.170Z,99.99
2022-09-30T05:18:22.114Z,99.99
2022-09-30T05:19:22.173Z,99.99
2022-09-30T05:20:21.998Z,99.99
2022-09-30T05:21:21.975Z,99.99
2022-09-30T05:22:21.881Z,99.99
2022-09-30T05:23:21.824Z,99.99
2022-09-30T05:24:21.815Z,99.99
2022-09-30T05:25:21.708Z,99.99
2022-09-30T05:26:21.651Z,99.99
2022-09-30T05:27:21.619Z,99.99
2022-09-30T05:28:21.535Z,99.99
2022-09-30T05:29:21.475Z,99.99
2022-09-30T05:30:21.417Z,99.99
2022-09-30T05:31:21.408Z,99.99
2022-09-30T05:32:21.307Z,99.99
2022-09-30T05:33:21.268Z,99.99
2022-09-30T05:34:21.184Z,99.99
2022-09-30T05:35:21.130Z,99.99
2022-09-30T05:36:21.072Z,99.99
2022-09-30T05:37:21.015Z,99.99
2022-09-30T05:38:20.989Z,99.99
2022-09-30T05:39:20.986Z,99.99
2022-09-30T05:40:20.842Z,99.99
2022-09-30T05:41:20.785Z,99.99
2022-09-30T05:42:20.727Z,99.99
2022-09-30T05:43:20.666Z,99.99
2022-09-30T05:44:20.638Z,99.99
2022-09-30T05:45:20.551Z,99.99
2022-09-30T05:46:20.554Z,99.99
2022-09-30T05:47:20.437Z,99.99
2022-09-30T05:48:20.389Z,99.99
2022-09-30T05:49:20.373Z,99.99
2022-09-30T05:50:20.282Z,99.99
2022-09-30T05:51:20.219Z,99.99
2022-09-30T05:52:20.148Z,99.99
2022-09-30T05:53:20.089Z,99.99
2022-09-30T05:54:20.038Z,99.99
2022-09-30T05:55:19.999Z,99.99
2022-09-30T05:56:19.918Z,99.99
2022-09-30T05:57:19.859Z,99.99
2022-09-30T05:58:19.800Z,99.99
2022-09-30T05:59:20.562Z,99.99
2022-09-30T06:00:19.690Z,99.99
2022-09-30T06:01:19.652Z,99.99
2022-09-30T06:02:19.692Z,99.99
2022-09-30T06:03:19.511Z,99.99
2022-09-30T06:04:19.454Z,99.99
2022-09-30T06:05:19.423Z,99.99
2022-09-30T06:06:19.376Z,99.99
2022-09-30T06:07:19.282Z,99.99
2022-09-30T06:08:19.223Z,99.99
2022-09-30T06:09:19.245Z,99.99
2022-09-30T06:10:19.111Z,99.99
2022-09-30T06:11:19.058Z,99.99
2022-09-30T06:12:19.011Z,99.99
2022-09-30T06:13:18.934Z,99.99
2022-09-30T06:14:18.887Z,99.99
2022-09-30T06:15:18.821Z,99.99
2022-09-30T06:16:18.908Z,99.99
2022-09-30T06:17:18.726Z,99.99
2022-09-30T06:18:18.644Z,99.99
2022-09-30T06:19:18.608Z,99.99
2022-09-30T06:20:18.528Z,99.99
2022-09-30T06:21:18.470Z,99.99
2022-09-30T06:22:18.439Z,99.99
2022-09-30T06:23:18.379Z,99.99
2022-09-30T06:24:18.296Z,99.99
2022-09-30T06:25:18.239Z,99.99
2022-09-30T06:26:18.184Z,99.99
2022-09-30T06:27:18.124Z,99.99
2022-09-30T06:28:18.069Z,99.99
2022-09-30T06:29:18.070Z,99.99
2022-09-30T06:30:17.960Z,99.99
2022-09-30T06:31:17.991Z,99.99
2022-09-30T06:32:17.841Z,99.99
2022-09-30T06:33:17.779Z,99.99
2022-09-30T06:34:17.739Z,99.99
2022-09-30T06:35:17.664Z,99.99
2022-09-30T06:36:17.607Z,99.99
2022-09-30T06:37:17.549Z,99.99
2022-09-30T06:38:17.492Z,99.99
2022-09-30T06:39:17.461Z,99.99
2022-09-30T06:40:17.380Z,99.99
2022-09-30T06:41:17.316Z,99.99
2022-09-30T06:42:17.261Z,99.99
2022-09-30T06:43:17.203Z,99.99
2022-09-30T06:44:17.147Z,99.99
2022-09-30T06:45:26.650Z,99.99
2022-09-30T06:46:23.776Z,99.99
2022-09-30T06:47:24.261Z,99.99
2022-09-30T06:48:21.869Z,99.99
2022-09-30T06:49:16.862Z,99.99
2022-09-30T06:50:24.497Z,99.99
2022-09-30T06:51:16.767Z,99.99
2022-09-30T06:52:16.695Z,99.99
2022-09-30T06:53:16.633Z,99.99
2022-09-30T06:54:16.756Z,99.99
2022-09-30T06:55:16.517Z,99.99
2022-09-30T06:56:16.479Z,99.99
2022-09-30T06:57:16.404Z,99.99
2022-09-30T06:58:16.345Z,99.99
2022-09-30T06:59:16.290Z,99.99
2022-09-30T07:00:16.234Z,99.99
2022-09-30T07:01:16.297Z,99.99
2022-09-30T07:02:16.218Z,99.99
2022-09-30T07:03:16.062Z,99.99
2022-09-30T07:04:16.020Z,99.99
2022-09-30T07:05:15.951Z,99.99
2022-09-30T07:06:15.893Z,99.99
2022-09-30T07:07:15.853Z,99.99
2022-09-30T07:08:15.780Z,99.99
2022-09-30T07:09:15.827Z,99.99
2022-09-30T07:10:15.661Z,99.99
2022-09-30T07:11:15.607Z,99.99
2022-09-30T07:12:15.593Z,99.99
2022-09-30T07:13:15.494Z,99.99
2022-09-30T07:14:15.440Z,99.99
2022-09-30T07:15:15.384Z,99.99
2022-09-30T07:16:15.423Z,99.99
2022-09-30T07:17:15.270Z,99.99
2022-09-30T07:18:15.229Z,99.99
2022-09-30T07:19:15.164Z,99.99
2022-09-30T07:20:15.098Z,99.99
2022-09-30T07:21:15.042Z,99.99
2022-09-30T07:22:14.990Z,99.99
2022-09-30T07:23:14.959Z,99.99
2022-09-30T07:24:14.877Z,99.99
2022-09-30T07:25:14.823Z,99.99
2022-09-30T07:26:14.772Z,99.99
2022-09-30T07:27:14.714Z,99.99
2022-09-30T07:28:14.654Z,99.99
2022-09-30T07:29:14.676Z,99.99
2022-09-30T07:30:24.555Z,99.99
2022-09-30T07:31:32.057Z,99.99
2022-09-30T07:32:14.638Z,99.99
2022-09-30T07:33:14.377Z,99.99
2022-09-30T07:34:14.341Z,99.99
2022-09-30T07:35:14.272Z,99.99
2022-09-30T07:36:14.223Z,99.99
2022-09-30T07:37:14.157Z,99.99
2022-09-30T07:38:14.102Z,99.99
2022-09-30T07:39:14.068Z,99.99
2022-09-30T07:40:14.000Z,99.99
2022-09-30T07:41:13.949Z,98.67
2022-09-30T07:42:13.894Z,96.70
2022-09-30T07:43:13.843Z,94.59
2022-09-30T07:44:13.812Z,92.43
2022-09-30T07:45:13.744Z,90.56
2022-09-30T07:46:13.787Z,88.82
2022-09-30T07:47:13.646Z,89.44
2022-09-30T07:48:13.599Z,86.31
2022-09-30T07:49:13.591Z,84.43
2022-09-30T07:50:13.506Z,83.66
2022-09-30T07:51:13.458Z,83.41
2022-09-30T07:52:13.414Z,83.84
2022-09-30T07:53:13.371Z,80.56
2022-09-30T07:54:13.328Z,81.18
2022-09-30T07:55:13.304Z,79.29
2022-09-30T07:56:13.244Z,77.75
2022-09-30T07:57:13.198Z,78.81
2022-09-30T07:58:13.164Z,78.08
2022-09-30T07:59:13.117Z,76.43
2022-09-30T08:00:37.838Z,76.86
2022-09-30T08:01:13.107Z,76.22
2022-09-30T08:02:13.037Z,76.12
2022-09-30T08:03:12.966Z,75.68
2022-09-30T08:04:12.911Z,73.84
2022-09-30T08:05:12.872Z,73.68
2022-09-30T08:06:12.875Z,72.04
2022-09-30T08:07:12.796Z,71.50
2022-09-30T08:08:12.757Z,70.92
2022-09-30T08:09:12.744Z,70.66
2022-09-30T08:10:12.697Z,70.08
2022-09-30T08:11:12.642Z,71.04
2022-09-30T08:12:12.624Z,69.98
2022-09-30T08:13:12.584Z,69.40
2022-09-30T08:14:12.525Z,68.91
2022-09-30T08:15:12.489Z,67.98
2022-09-30T08:16:12.468Z,66.95
2022-09-30T08:17:12.431Z,66.66
2022-09-30T08:18:12.375Z,65.40
2022-09-30T08:19:12.340Z,65.69
2022-09-30T08:20:14.379Z,63.95
2022-09-30T08:21:12.264Z,64.17
2022-09-30T08:22:12.254Z,64.75
2022-09-30T08:23:12.196Z,63.69
2022-09-30T08:24:12.158Z,64.56
2022-09-30T08:25:12.117Z,63.30
2022-09-30T08:26:12.084Z,63.13
2022-09-30T08:27:12.113Z,62.49
2022-09-30T08:28:12.051Z,60.94
2022-09-30T08:29:20.044Z,61.42
2022-09-30T08:30:11.938Z,60.35
2022-09-30T08:31:11.900Z,60.58
2022-09-30T08:32:11.933Z,60.25
2022-09-30T08:33:11.829Z,61.65
2022-09-30T08:34:11.819Z,60.74
2022-09-30T08:35:11.758Z,60.87
2022-09-30T08:36:11.750Z,59.77
2022-09-30T08:37:11.686Z,59.19
2022-09-30T08:38:11.648Z,58.48
2022-09-30T08:39:11.618Z,58.51
2022-09-30T08:40:11.608Z,58.41
2022-09-30T08:41:11.543Z,56.47
2022-09-30T08:42:32.266Z,55.50
2022-09-30T08:43:11.473Z,56.21
2022-09-30T08:44:11.458Z,57.08
2022-09-30T08:45:11.425Z,57.08
2022-09-30T08:46:11.477Z,56.30
2022-09-30T08:47:11.328Z,56.62
2022-09-30T08:48:11.311Z,54.58
2022-09-30T08:49:11.273Z,54.29
2022-09-30T08:50:11.236Z,55.85
2022-09-30T08:51:11.189Z,55.85
2022-09-30T08:52:15.958Z,53.83
2022-09-30T08:53:11.111Z,54.52
2022-09-30T08:54:11.075Z,53.61
2022-09-30T08:55:11.075Z,55.49
2022-09-30T08:56:11.003Z,55.80
2022-09-30T08:57:10.968Z,55.80
2022-09-30T08:58:10.929Z,56.61
2022-09-30T08:59:10.892Z,54.76
2022-09-30T09:00:10.857Z,55.11
2022-09-30T09:01:10.875Z,53.65
2022-09-30T09:02:15.187Z,52.67
2022-09-30T09:03:10.743Z,53.16
2022-09-30T09:04:10.708Z,50.65
2022-09-30T09:05:10.702Z,50.04
2022-09-30T09:06:10.650Z,50.92
2022-09-30T09:07:10.617Z,51.63
2022-09-30T09:08:10.559Z,52.40
2022-09-30T09:09:10.522Z,50.07
2022-09-30T09:10:10.478Z,49.95
2022-09-30T09:11:10.467Z,48.95
2022-09-30T09:12:10.407Z,50.12
2022-09-30T09:13:10.378Z,50.78
2022-09-30T09:14:10.329Z,51.87
2022-09-30T09:15:10.293Z,53.55
2022-09-30T09:16:10.307Z,52.38
2022-09-30T09:17:15.281Z,53.99
2022-09-30T09:18:25.615Z,52.34
2022-09-30T09:19:10.143Z,49.71
2022-09-30T09:20:10.106Z,49.44
2022-09-30T09:21:10.062Z,48.66
2022-09-30T09:22:10.067Z,48.88
2022-09-30T09:23:09.986Z,47.66
2022-09-30T09:24:10.018Z,47.56
2022-09-30T09:25:09.910Z,47.92
2022-09-30T09:26:09.870Z,46.34
2022-09-30T09:27:09.833Z,47.37
2022-09-30T09:28:09.871Z,48.20
2022-09-30T09:29:09.756Z,49.24
2022-09-30T09:30:09.716Z,49.77
2022-09-30T09:31:09.677Z,49.66
2022-09-30T09:32:09.714Z,52.76
2022-09-30T09:33:09.619Z,52.44
2022-09-30T09:34:09.566Z,51.89
2022-09-30T09:35:09.517Z,50.60
2022-09-30T09:36:09.483Z,49.46
2022-09-30T09:37:09.435Z,50.24
2022-09-30T09:38:09.458Z,49.99
2022-09-30T09:39:09.357Z,49.73
2022-09-30T09:40:09.317Z,48.83
2022-09-30T09:41:09.288Z,47.72
2022-09-30T09:42:09.235Z,49.41
2022-09-30T09:43:09.197Z,50.65
2022-09-30T09:44:09.200Z,53.45
2022-09-30T09:45:09.112Z,55.29
2022-09-30T09:46:09.216Z,54.13
2022-09-30T09:47:09.028Z,54.61
2022-09-30T09:48:08.990Z,55.47
2022-09-30T09:49:08.971Z,53.96
2022-09-30T09:50:08.904Z,52.80
2022-09-30T09:51:08.863Z,53.89
2022-09-30T09:52:08.818Z,53.89
2022-09-30T09:53:08.774Z,53.28
2022-09-30T09:54:08.734Z,53.86
2022-09-30T09:55:08.712Z,52.39
2022-09-30T09:56:08.650Z,54.35
2022-09-30T09:57:08.605Z,54.73
2022-09-30T09:58:08.561Z,54.53
2022-09-30T09:59:08.519Z,54.51
2022-09-30T10:00:08.500Z,53.91
2022-09-30T10:01:09.575Z,53.92
2022-09-30T10:02:08.450Z,56.37
2022-09-30T10:03:08.350Z,57.89
2022-09-30T10:04:08.304Z,57.18
2022-09-30T10:05:08.277Z,56.45
2022-09-30T10:06:08.216Z,58.45
2022-09-30T10:07:08.173Z,59.31
2022-09-30T10:08:08.126Z,60.27
2022-09-30T10:09:08.082Z,62.83
2022-09-30T10:10:08.059Z,60.14
2022-09-30T10:11:08.002Z,59.49
2022-09-30T10:12:07.950Z,59.78
2022-09-30T10:13:07.905Z,59.04
2022-09-30T10:14:07.856Z,59.94
2022-09-30T10:15:07.856Z,57.40
2022-09-30T10:16:07.819Z,57.35
2022-09-30T10:17:07.728Z,58.86
2022-09-30T10:18:07.683Z,61.52
2022-09-30T10:19:09.744Z,63.99
2022-09-30T10:20:07.615Z,61.71
2022-09-30T10:21:07.543Z,59.20
2022-09-30T10:22:07.499Z,59.37
2022-09-30T10:23:07.459Z,60.24
2022-09-30T10:24:07.408Z,60.14
2022-09-30T10:25:07.364Z,58.98
2022-09-30T10:26:07.344Z,59.34
2022-09-30T10:27:07.284Z,60.91
2022-09-30T10:28:07.327Z,63.28
2022-09-30T10:29:07.177Z,63.35
2022-09-30T10:30:07.138Z,64.31
2022-09-30T10:31:07.110Z,65.56
2022-09-30T10:32:07.148Z,65.56
2022-09-30T10:33:06.996Z,66.00
2022-09-30T10:34:06.947Z,63.83
2022-09-30T10:35:06.901Z,62.23
2022-09-30T10:36:06.891Z,60.69
2022-09-30T10:37:06.809Z,62.71
2022-09-30T10:38:06.767Z,59.72
2022-09-30T10:39:07.283Z,58.86
2022-09-30T10:40:06.670Z,59.28
2022-09-30T10:41:06.625Z,60.50
2022-09-30T10:42:06.598Z,61.46
2022-09-30T10:43:06.544Z,60.50
2022-09-30T10:44:06.488Z,60.95
2022-09-30T10:45:06.446Z,62.65
2022-09-30T10:46:25.031Z,63.29
2022-09-30T10:47:06.419Z,64.09
2022-09-30T10:48:06.307Z,64.56
2022-09-30T10:49:06.250Z,64.09
2022-09-30T10:50:06.206Z,64.89
2022-09-30T10:51:06.165Z,64.50
2022-09-30T10:52:06.137Z,63.06
2022-09-30T10:53:06.067Z,63.92
2022-09-30T10:54:06.026Z,63.12
2022-09-30T10:55:11.224Z,63.96
2022-09-30T10:56:05.927Z,65.36
2022-09-30T10:57:05.924Z,67.66
2022-09-30T10:58:05.831Z,68.43
2022-09-30T10:59:05.784Z,68.18
2022-09-30T11:00:05.750Z,67.69
2022-09-30T11:01:05.782Z,68.21
2022-09-30T11:02:06.123Z,67.54
2022-09-30T11:03:05.680Z,65.36
2022-09-30T11:04:05.556Z,67.54
2022-09-30T11:05:05.497Z,66.23
2022-09-30T11:06:05.458Z,65.30
2022-09-30T11:07:05.401Z,63.86
2022-09-30T11:08:05.374Z,63.35
2022-09-30T11:09:05.311Z,61.20
2022-09-30T11:10:05.266Z,62.71
2022-09-30T11:11:08.725Z,63.86
2022-09-30T11:12:05.166Z,65.46
2022-09-30T11:13:05.157Z,67.47
2022-09-30T11:14:05.076Z,67.73
2022-09-30T11:15:05.031Z,67.35
2022-09-30T11:16:05.056Z,67.25
2022-09-30T11:17:04.931Z,68.08
2022-09-30T11:18:04.895Z,68.27
2022-09-30T11:19:04.862Z,69.23
2022-09-30T11:20:04.800Z,69.62
2022-09-30T11:21:04.737Z,69.58
2022-09-30T11:22:04.780Z,69.10
2022-09-30T11:23:04.640Z,69.62
2022-09-30T11:24:04.592Z,69.04
2022-09-30T11:25:10.196Z,69.36
2022-09-30T11:26:04.500Z,68.24
2022-09-30T11:27:04.448Z,67.29
2022-09-30T11:28:04.470Z,67.51
2022-09-30T11:29:04.357Z,68.18
2022-09-30T11:30:04.353Z,67.61
2022-09-30T11:31:07.156Z,67.80
2022-09-30T11:32:04.323Z,67.13
2022-09-30T11:33:04.167Z,66.42
2022-09-30T11:34:04.112Z,67.96
2022-09-30T11:35:04.063Z,66.80
2022-09-30T11:36:04.043Z,67.44
2022-09-30T11:37:03.972Z,67.44
2022-09-30T11:38:03.919Z,67.44
2022-09-30T11:39:03.871Z,68.59
2022-09-30T11:40:03.823Z,68.30
2022-09-30T11:41:03.798Z,68.24
2022-09-30T11:42:03.727Z,69.56
2022-09-30T11:43:07.972Z,69.84
2022-09-30T11:44:03.630Z,68.50
2022-09-30T11:45:03.584Z,68.50
2022-09-30T11:46:03.583Z,69.30
2022-09-30T11:47:03.502Z,67.80
2022-09-30T11:48:03.457Z,66.10
2022-09-30T11:49:03.389Z,65.91
2022-09-30T11:50:03.341Z,64.79
2022-09-30T11:51:03.292Z,61.61
2022-09-30T11:52:03.272Z,59.79
2022-09-30T11:53:03.195Z,61.40
2022-09-30T11:54:03.154Z,63.89
2022-09-30T11:55:03.098Z,63.12
2022-09-30T11:56:10.124Z,65.62
2022-09-30T11:57:03.007Z,62.81
2022-09-30T11:58:22.345Z,63.57
2022-09-30T11:59:02.951Z,64.28
2022-09-30T12:00:02.863Z,65.17
2022-09-30T12:01:02.819Z,63.83
2022-09-30T12:02:02.823Z,63.18
2022-09-30T12:03:05.652Z,64.34
2022-09-30T12:04:02.741Z,63.57
2022-09-30T12:05:02.624Z,62.61
2022-09-30T12:06:02.575Z,63.25
2022-09-30T12:07:02.530Z,63.83
2022-09-30T12:08:02.500Z,62.84
2022-09-30T12:09:02.434Z,64.18
2022-09-30T12:10:02.388Z,66.10
2022-09-30T12:11:02.339Z,64.66
2022-09-30T12:12:02.293Z,64.60
2022-09-30T12:13:02.265Z,63.57
2022-09-30T12:14:02.197Z,61.55
2022-09-30T12:15:02.150Z,63.12
2022-09-30T12:16:02.132Z,63.51
2022-09-30T12:17:02.265Z,62.23
2022-09-30T12:18:02.005Z,62.51
2022-09-30T12:19:01.979Z,63.09
2022-09-30T12:20:01.913Z,63.25
2022-09-30T12:21:01.864Z,62.71
2022-09-30T12:22:01.819Z,63.76
2022-09-30T12:23:01.770Z,64.02
2022-09-30T12:24:01.745Z,66.16
2022-09-30T12:25:01.675Z,64.72
2022-09-30T12:26:01.627Z,66.20
2022-09-30T12:27:01.582Z,64.50
2022-09-30T12:28:01.580Z,64.02
2022-09-30T12:29:03.714Z,64.18
2022-09-30T12:30:01.441Z,65.81
2022-09-30T12:31:01.391Z,64.47
2022-09-30T12:32:01.453Z,64.09
2022-09-30T12:33:01.297Z,66.55
2022-09-30T12:34:01.249Z,65.88
2022-09-30T12:35:01.231Z,65.59
2022-09-30T12:36:01.152Z,65.75
2022-09-30T12:37:01.105Z,65.84
2022-09-30T12:38:01.057Z,65.52
2022-09-30T12:39:01.013Z,64.98
2022-09-30T12:40:00.966Z,65.81
2022-09-30T12:41:00.938Z,65.94
2022-09-30T12:42:00.868Z,65.91
2022-09-30T12:43:00.818Z,66.93
2022-09-30T12:44:00.767Z,68.37
2022-09-30T12:45:00.725Z,69.62
2022-09-30T12:46:00.711Z,70.23
2022-09-30T12:47:00.644Z,68.79
2022-09-30T12:48:00.583Z,67.67
2022-09-30T12:49:00.531Z,67.25
2022-09-30T12:50:00.482Z,68.05
2022-09-30T12:51:00.435Z,67.76
2022-09-30T12:52:00.408Z,66.23